createdAt,value
2022-09-11T00:01:50.282Z,100.00
2022-09-11T00:04:18.819Z,100.00
2022-09-11T00:06:47.255Z,100.00
2022-09-11T00:09:15.434Z,100.00
2022-09-11T00:11:45.206Z,100.00
2022-09-11T00:14:14.963Z,100.00
2022-09-11T00:16:47.050Z,100.00
2022-09-11T00:19:18.972Z,100.00
2022-09-11T00:21:47.742Z,100.00
2022-09-11T00:24:15.991Z,100.00
2022-09-11T00:26:47.470Z,100.00
2022-09-11T00:29:15.839Z,100.00
2022-09-11T00:31:44.354Z,100.00
2022-09-11T00:34:12.637Z,100.00
2022-09-11T00:36:43.157Z,100.00
2022-09-11T00:39:12.767Z,100.00
2022-09-11T00:41:44.822Z,100.00
2022-09-11T00:45:02.676Z,100.00
2022-09-11T00:47:32.276Z,100.00
2022-09-11T00:50:12.819Z,100.00
2022-09-11T00:52:52.932Z,100.00
2022-09-11T00:55:24.285Z,100.00
2022-09-11T00:57:58.450Z,100.00
2022-09-11T01:00:28.880Z,100.00
2022-09-11T01:02:58.065Z,100.00
2022-09-11T01:05:33.529Z,100.00
2022-09-11T01:08:03.044Z,100.00
2022-09-11T01:10:43.274Z,100.00
2022-09-11T01:13:23.957Z,100.00
2022-09-11T01:16:04.286Z,100.00
2022-09-11T01:18:37.923Z,100.00
2022-09-11T01:21:43.366Z,100.00
2022-09-11T01:24:27.159Z,100.00
2022-09-11T01:27:29.948Z,100.00
2022-09-11T01:30:06.300Z,100.00
2022-09-11T01:32:51.458Z,100.00
2022-09-11T01:35:27.195Z,100.00
2022-09-11T01:38:01.366Z,100.00
2022-09-11T01:40:36.712Z,100.00
2022-09-11T01:43:13.707Z,100.00
2022-09-11T01:45:47.226Z,100.00
2022-09-11T01:48:21.586Z,100.00
2022-09-11T01:50:54.126Z,100.00
2022-09-11T01:53:27.528Z,100.00
2022-09-11T01:56:03.440Z,100.00
2022-09-11T01:58:36.291Z,100.00
2022-09-11T02:01:10.409Z,100.00
2022-09-11T02:03:41.731Z,100.00
2022-09-11T02:06:15.911Z,100.00
2022-09-11T02:08:50.078Z,100.00
2022-09-11T02:11:21.065Z,100.00
2022-09-11T02:14:00.506Z,100.00
2022-09-11T02:16:44.029Z,100.00
2022-09-11T02:19:15.594Z,100.00
2022-09-11T02:21:45.055Z,100.00
2022-09-11T02:24:13.283Z,100.00
2022-09-11T02:26:46.811Z,100.00
2022-09-11T02:29:17.426Z,100.00
2022-09-11T02:31:45.873Z,100.00
2022-09-11T02:34:15.524Z,100.00
2022-09-11T02:37:03.198Z,100.00
2022-09-11T02:40:06.390Z,100.00
2022-09-11T02:42:48.726Z,100.00
2022-09-11T02:45:35.292Z,100.00
2022-09-11T02:48:28.653Z,100.00
2022-09-11T02:51:08.091Z,100.00
2022-09-11T02:53:44.680Z,100.00
2022-09-11T02:56:18.642Z,100.00
2022-09-11T02:58:52.148Z,100.00
2022-09-11T03:01:23.177Z,100.00
2022-09-11T03:03:51.824Z,100.00
2022-09-11T03:06:24.182Z,100.00
2022-09-11T03:08:52.668Z,100.00
2022-09-11T03:11:21.025Z,100.00
2022-09-11T03:13:49.275Z,100.00
2022-09-11T03:16:17.858Z,100.00
2022-09-11T03:18:47.639Z,100.00
2022-09-11T03:21:16.872Z,100.00
2022-09-11T03:23:45.118Z,100.00
2022-09-11T03:26:13.455Z,100.00
2022-09-11T03:28:41.698Z,100.00
2022-09-11T03:31:10.504Z,100.00
2022-09-11T03:33:38.867Z,100.00
2022-09-11T03:36:09.281Z,100.00
2022-09-11T03:38:38.019Z,100.00
2022-09-11T03:41:06.755Z,100.00
2022-09-11T03:43:35.048Z,100.00
2022-09-11T03:46:03.422Z,100.00
2022-09-11T03:48:32.288Z,100.00
2022-09-11T03:51:00.684Z,100.00
2022-09-11T03:53:33.040Z,100.00
2022-09-11T03:56:03.926Z,100.00
2022-09-11T03:58:32.378Z,100.00
2022-09-11T04:01:00.904Z,100.00
2022-09-11T04:03:30.232Z,100.00
2022-09-11T04:06:01.177Z,100.00
2022-09-11T04:08:33.556Z,100.00
2022-09-11T04:11:04.490Z,100.00
2022-09-11T04:13:35.689Z,100.00
2022-09-11T04:16:06.838Z,100.00
2022-09-11T04:18:38.561Z,100.00
2022-09-11T04:21:08.551Z,100.00
2022-09-11T04:23:38.541Z,100.00
2022-09-11T04:26:15.783Z,100.00
2022-09-11T04:28:44.609Z,100.00
2022-09-11T04:31:13.913Z,100.00
2022-09-11T04:33:42.471Z,100.00
2022-09-11T04:36:14.037Z,100.00
2022-09-11T04:38:44.023Z,100.00
2022-09-11T04:41:12.701Z,100.00
2022-09-11T04:43:42.812Z,100.00
2022-09-11T04:46:13.782Z,100.00
2022-09-11T04:48:46.119Z,100.00
2022-09-11T04:51:21.988Z,100.00
2022-09-11T04:53:52.293Z,100.00
2022-09-11T04:56:21.911Z,100.00
2022-09-11T04:58:55.886Z,100.00
2022-09-11T05:01:26.108Z,100.00
2022-09-11T05:03:56.158Z,100.00
2022-09-11T05:06:25.114Z,100.00
2022-09-11T05:08:54.659Z,100.00
2022-09-11T05:11:22.886Z,100.00
2022-09-11T05:13:51.148Z,100.00
2022-09-11T05:16:19.475Z,100.00
2022-09-11T05:18:52.631Z,100.00
2022-09-11T05:21:24.173Z,100.00
2022-09-11T05:23:58.021Z,100.00
2022-09-11T05:26:29.321Z,100.00
2022-09-11T05:29:00.259Z,100.00
2022-09-11T05:31:30.194Z,100.00
2022-09-11T05:34:00.145Z,100.00
2022-09-11T05:36:31.027Z,100.00
2022-09-11T05:39:01.469Z,100.00
2022-09-11T05:41:29.925Z,100.00
2022-09-11T05:44:01.919Z,100.00
2022-09-11T05:46:32.474Z,100.00
2022-09-11T05:49:02.870Z,100.00
2022-09-11T05:51:35.713Z,100.00
2022-09-11T05:54:06.036Z,100.00
2022-09-11T05:56:36.131Z,100.00
2022-09-11T05:59:05.050Z,100.00
2022-09-11T06:01:33.382Z,100.00
2022-09-11T06:04:02.192Z,100.00
2022-09-11T06:06:30.285Z,100.00
2022-09-11T06:08:58.563Z,100.00
2022-09-11T06:11:29.273Z,100.00
2022-09-11T06:13:57.761Z,100.00
2022-09-11T06:16:26.543Z,100.00
2022-09-11T06:18:55.331Z,100.00
2022-09-11T06:21:29.160Z,100.00
2022-09-11T06:23:57.416Z,100.00
2022-09-11T06:26:29.374Z,100.00
2022-09-11T06:28:59.305Z,100.00
2022-09-11T06:31:28.525Z,100.00
2022-09-11T06:33:57.113Z,100.00
2022-09-11T06:36:27.883Z,100.00
2022-09-11T06:38:57.994Z,100.00
2022-09-11T06:41:28.978Z,100.00
2022-09-11T06:43:57.556Z,100.00
2022-09-11T06:46:26.952Z,100.00
2022-09-11T06:48:57.630Z,100.00
2022-09-11T06:51:27.037Z,100.00
2022-09-11T06:53:58.023Z,100.00
2022-09-11T06:56:28.002Z,100.00
2022-09-11T06:58:56.323Z,100.00
2022-09-11T07:01:24.634Z,100.00
2022-09-11T07:03:56.152Z,100.00
2022-09-11T07:06:27.609Z,100.00
2022-09-11T07:09:00.819Z,100.00
2022-09-11T07:11:35.155Z,100.00
2022-09-11T07:14:07.441Z,100.00
2022-09-11T07:16:36.151Z,100.00
2022-09-11T07:19:04.916Z,100.00
2022-09-11T07:21:37.122Z,100.00
2022-09-11T07:24:05.984Z,100.00
2022-09-11T07:26:36.894Z,100.00
2022-09-11T07:29:06.170Z,100.00
2022-09-11T07:31:35.559Z,100.00
2022-09-11T07:34:03.902Z,100.00
2022-09-11T07:36:35.072Z,100.00
2022-09-11T07:39:04.626Z,100.00
2022-09-11T07:41:33.063Z,100.00
2022-09-11T07:44:04.023Z,100.00
2022-09-11T07:46:32.942Z,100.00
2022-09-11T07:49:04.812Z,100.00
2022-09-11T07:51:36.001Z,100.00
2022-09-11T07:54:15.241Z,100.00
2022-09-11T07:56:43.755Z,100.00
2022-09-11T07:59:18.246Z,100.00
2022-09-11T08:01:46.716Z,100.00
2022-09-11T08:04:15.407Z,100.00
2022-09-11T08:06:44.016Z,100.00
2022-09-11T08:09:17.075Z,100.00
2022-09-11T08:11:48.873Z,100.00
2022-09-11T08:14:18.863Z,100.00
2022-09-11T08:16:47.754Z,100.00
2022-09-11T08:19:22.629Z,100.00
2022-09-11T08:21:54.093Z,100.00
2022-09-11T08:24:22.583Z,100.00
2022-09-11T08:26:50.986Z,100.00
2022-09-11T08:29:20.637Z,100.00
2022-09-11T08:31:48.871Z,100.00
2022-09-11T08:34:17.184Z,100.00
2022-09-11T08:36:45.648Z,100.00
2022-09-11T08:39:14.054Z,100.00
2022-09-11T08:41:49.321Z,100.00
2022-09-11T08:44:25.548Z,100.00
2022-09-11T08:47:00.429Z,100.00
2022-09-11T08:49:33.610Z,100.00
2022-09-11T08:52:06.026Z,100.00
2022-09-11T08:54:39.344Z,100.00
2022-09-11T08:57:18.666Z,100.00
2022-09-11T09:00:06.919Z,100.00
2022-09-11T09:03:24.778Z,100.00
2022-09-11T09:06:00.599Z,100.00
2022-09-11T09:08:45.430Z,100.00
2022-09-11T09:11:28.975Z,100.00
2022-09-11T09:14:19.081Z,100.00
2022-09-11T09:16:58.706Z,100.00
2022-09-11T09:19:33.610Z,100.00
2022-09-11T09:22:11.098Z,100.00
2022-09-11T09:24:48.439Z,100.00
2022-09-11T09:27:20.102Z,100.00
2022-09-11T09:29:54.703Z,100.00
2022-09-11T09:32:32.216Z,100.00
2022-09-11T09:35:11.853Z,100.00
2022-09-11T09:37:39.995Z,100.00
2022-09-11T09:40:11.797Z,100.00
2022-09-11T09:42:58.317Z,100.00
2022-09-11T09:45:45.917Z,100.00
2022-09-11T09:48:16.057Z,100.00
2022-09-11T09:50:45.202Z,100.00
2022-09-11T09:53:32.960Z,100.00
2022-09-11T09:56:03.123Z,100.00
2022-09-11T09:58:37.539Z,100.00
2022-09-11T10:01:29.137Z,100.00
2022-09-11T10:04:12.562Z,100.00
2022-09-11T10:06:41.197Z,100.00
2022-09-11T10:09:22.223Z,100.00
2022-09-11T10:12:02.412Z,100.00
2022-09-11T10:14:51.088Z,100.00
2022-09-11T10:17:23.197Z,100.00
2022-09-11T10:19:56.923Z,100.00
2022-09-11T10:22:29.478Z,100.00
2022-09-11T10:25:06.876Z,100.00
2022-09-11T10:27:40.368Z,100.00
2022-09-11T10:30:30.249Z,100.00
2022-09-11T10:33:03.564Z,100.00
2022-09-11T10:35:36.460Z,100.00
2022-09-11T10:38:18.743Z,100.00
2022-09-11T10:41:02.911Z,100.00
2022-09-11T10:43:41.179Z,100.00
2022-09-11T10:46:29.987Z,100.00
2022-09-11T10:49:01.189Z,100.00
2022-09-11T10:51:36.022Z,100.00
2022-09-11T10:54:27.959Z,100.00
2022-09-11T10:57:08.934Z,100.00
2022-09-11T10:59:45.911Z,100.00
2022-09-11T11:02:21.888Z,100.00
2022-09-11T11:04:51.073Z,100.00
2022-09-11T11:07:54.415Z,100.00
2022-09-11T11:10:42.394Z,100.00
2022-09-11T11:13:33.721Z,100.00
2022-09-11T11:16:16.012Z,100.00
2022-09-11T11:19:06.689Z,100.00
2022-09-11T11:21:53.369Z,100.00
2022-09-11T11:24:53.558Z,100.00
2022-09-11T11:27:51.331Z,100.00
2022-09-11T11:30:22.178Z,93.04
2022-09-11T11:33:28.787Z,88.20
2022-09-11T11:36:05.234Z,90.24
2022-09-11T11:38:41.117Z,84.55
2022-09-11T11:41:19.447Z,71.70
2022-09-11T11:43:51.443Z,84.46
2022-09-11T11:46:25.092Z,74.31
2022-09-11T11:48:59.114Z,79.99
2022-09-11T11:51:33.061Z,93.87
2022-09-11T11:54:07.725Z,83.94
2022-09-11T11:56:45.491Z,94.86
2022-09-11T11:59:21.435Z,79.83
2022-09-11T12:01:59.702Z,78.65
2022-09-11T12:04:44.114Z,79.82
2022-09-11T12:07:19.162Z,79.32
2022-09-11T12:09:49.404Z,78.80
2022-09-11T12:12:21.016Z,77.55
2022-09-11T12:14:55.980Z,78.94
2022-09-11T12:17:28.876Z,74.82
2022-09-11T12:20:32.451Z,70.93
2022-09-11T12:23:01.829Z,71.75
2022-09-11T12:26:18.997Z,74.57
2022-09-11T12:28:48.996Z,70.32
2022-09-11T12:31:18.812Z,70.93
2022-09-11T12:33:54.564Z,73.39
2022-09-11T12:36:53.795Z,64.93
2022-09-11T12:39:33.929Z,71.35
2022-09-11T12:42:57.363Z,69.48
2022-09-11T12:45:38.236Z,76.63
2022-09-11T12:48:10.841Z,67.04
2022-09-11T12:50:39.948Z,65.64
2022-09-11T12:53:18.808Z,66.44
2022-09-11T12:55:57.278Z,67.80
2022-09-11T12:58:36.658Z,64.24
2022-09-11T13:01:21.005Z,58.37
2022-09-11T13:03:59.315Z,57.88
2022-09-11T13:06:40.800Z,61.00
2022-09-11T13:09:18.172Z,55.55
2022-09-11T13:11:49.315Z,57.19
2022-09-11T13:14:52.033Z,58.32
2022-09-11T13:17:30.450Z,54.93
2022-09-11T13:20:21.721Z,57.18
2022-09-11T13:22:54.860Z,55.76
2022-09-11T13:25:45.080Z,58.23
2022-09-11T13:28:28.506Z,55.21
2022-09-11T13:31:05.109Z,53.83
2022-09-11T13:33:35.006Z,53.23
2022-09-11T13:36:06.827Z,61.13
2022-09-11T13:38:37.719Z,52.91
2022-09-11T13:41:10.029Z,53.11
2022-09-11T13:43:44.207Z,55.67
2022-09-11T13:46:25.619Z,55.76
2022-09-11T13:49:00.205Z,53.62
2022-09-11T13:51:31.165Z,50.97
2022-09-11T13:54:14.313Z,51.38
2022-09-11T13:56:48.664Z,49.38
2022-09-11T13:59:39.779Z,49.02
2022-09-11T14:02:57.048Z,50.84
2022-09-11T14:05:31.765Z,47.68
2022-09-11T14:08:04.668Z,49.03
2022-09-11T14:10:37.672Z,48.44
2022-09-11T14:13:15.367Z,45.90
2022-09-11T14:15:48.896Z,46.62
2022-09-11T14:18:30.340Z,47.79
2022-09-11T14:21:05.787Z,45.82
2022-09-11T14:23:48.029Z,45.72
2022-09-11T14:26:18.751Z,48.10
2022-09-11T14:29:06.855Z,44.97
2022-09-11T14:31:39.903Z,44.46
2022-09-11T14:34:17.707Z,45.30
2022-09-11T14:36:56.520Z,45.05
2022-09-11T14:39:34.135Z,44.52
2022-09-11T14:42:03.404Z,44.38
2022-09-11T14:44:32.791Z,43.54
2022-09-11T14:47:00.998Z,42.57
2022-09-11T14:49:32.361Z,41.79
2022-09-11T14:52:02.882Z,43.05
2022-09-11T14:54:32.081Z,43.51
2022-09-11T14:57:00.613Z,43.38
2022-09-11T14:59:32.246Z,42.13
2022-09-11T15:02:00.489Z,41.69
2022-09-11T15:04:29.577Z,41.86
2022-09-11T15:06:59.703Z,41.01
2022-09-11T15:09:29.216Z,39.88
2022-09-11T15:11:57.271Z,40.26
2022-09-11T15:14:45.096Z,41.26
2022-09-11T15:17:17.816Z,41.10
2022-09-11T15:19:47.654Z,38.79
2022-09-11T15:22:16.493Z,39.68
2022-09-11T15:24:48.779Z,38.88
2022-09-11T15:27:19.026Z,40.24
2022-09-11T15:29:47.194Z,41.10
2022-09-11T15:32:15.367Z,41.25
2022-09-11T15:34:43.817Z,41.96
2022-09-11T15:37:12.666Z,41.39
2022-09-11T15:39:40.949Z,42.01
2022-09-11T15:42:10.962Z,42.99
2022-09-11T15:44:41.669Z,41.37
2022-09-11T15:47:09.933Z,42.44
2022-09-11T15:49:42.390Z,42.57
2022-09-11T15:52:11.182Z,43.14
2022-09-11T15:54:39.816Z,42.16
2022-09-11T15:57:08.514Z,43.77
2022-09-11T15:59:38.249Z,44.31
2022-09-11T16:02:06.780Z,45.81
2022-09-11T16:04:35.114Z,46.28
2022-09-11T16:07:03.421Z,47.02
2022-09-11T16:09:33.139Z,48.50
2022-09-11T16:12:02.813Z,49.61
2022-09-11T16:14:34.231Z,51.17
2022-09-11T16:17:06.534Z,52.29
2022-09-11T16:19:35.598Z,52.82
2022-09-11T16:22:06.253Z,53.24
2022-09-11T16:24:37.148Z,54.02
2022-09-11T16:27:07.621Z,57.60
2022-09-11T16:30:05.482Z,58.51
2022-09-11T16:32:37.566Z,59.70
2022-09-11T16:35:08.492Z,64.80
2022-09-11T16:37:40.785Z,70.50
2022-09-11T16:40:10.712Z,70.10
2022-09-11T16:42:38.944Z,72.24
2022-09-11T16:45:08.259Z,72.22
2022-09-11T16:47:37.766Z,75.52
2022-09-11T16:50:08.444Z,79.18
2022-09-11T16:52:37.533Z,79.12
2022-09-11T16:55:09.590Z,81.91
2022-09-11T16:57:37.938Z,84.30
2022-09-11T17:00:09.957Z,92.49
2022-09-11T17:02:40.465Z,94.95
2022-09-11T17:05:10.918Z,100.00
2022-09-11T17:07:45.122Z,100.00
2022-09-11T17:10:19.321Z,97.27
2022-09-11T17:12:48.005Z,100.00
2022-09-11T17:15:16.774Z,100.00
2022-09-11T17:17:47.587Z,100.00
2022-09-11T17:20:16.588Z,100.00
2022-09-11T17:22:44.873Z,100.00
2022-09-11T17:25:13.363Z,100.00
2022-09-11T17:27:44.152Z,100.00
2022-09-11T17:30:18.132Z,100.00
2022-09-11T17:56:29.456Z,100.00
2022-09-11T18:36:06.239Z,100.00
2022-09-11T18:38:41.057Z,100.00
2022-09-11T18:47:19.642Z,100.00
2022-09-11T18:50:04.017Z,100.00
2022-09-11T18:52:35.066Z,100.00
2022-09-11T18:55:19.100Z,100.00
2022-09-11T18:57:51.211Z,100.00
2022-09-11T19:04:12.703Z,100.00
2022-09-11T19:06:42.683Z,100.00
2022-09-11T19:09:14.275Z,100.00
2022-09-11T19:11:49.355Z,100.00
2022-09-11T19:14:21.322Z,100.00
2022-09-11T19:17:04.205Z,100.00
2022-09-11T19:20:20.113Z,100.00
2022-09-11T19:26:26.450Z,100.00
2022-09-11T19:28:56.478Z,100.00
2022-09-11T19:31:32.663Z,100.00
2022-09-11T19:34:05.042Z,100.00
2022-09-11T19:36:37.581Z,100.00
2022-09-11T19:39:10.253Z,100.00
2022-09-11T19:41:52.501Z,100.00
2022-09-11T19:44:23.507Z,100.00
2022-09-11T19:46:54.861Z,100.00
2022-09-11T19:49:44.187Z,100.00
2022-09-11T19:52:18.134Z,100.00
2022-09-11T19:54:49.000Z,100.00
2022-09-11T19:57:30.410Z,100.00
2022-09-11T20:00:00.703Z,100.00
2022-09-11T20:02:33.237Z,100.00
2022-09-11T20:05:17.888Z,100.00
2022-09-11T20:07:46.934Z,100.00
2022-09-11T20:10:18.819Z,100.00
2022-09-11T20:13:20.145Z,100.00
2022-09-11T20:21:30.050Z,100.00
2022-09-11T20:27:21.474Z,100.00
2022-09-11T20:30:08.983Z,100.00
2022-09-11T20:32:39.768Z,100.00
2022-09-11T20:35:15.082Z,100.00
2022-09-11T20:37:46.940Z,100.00
2022-09-11T20:40:17.822Z,100.00
2022-09-11T20:42:48.692Z,100.00
2022-09-11T20:45:30.957Z,100.00
2022-09-11T20:48:00.909Z,100.00
2022-09-11T20:53:14.474Z,100.00
2022-09-11T20:55:44.251Z,100.00
2022-09-11T20:58:27.176Z,100.00
2022-09-11T21:00:58.149Z,100.00
2022-09-11T21:03:27.274Z,100.00
2022-09-11T21:05:57.861Z,100.00
2022-09-11T21:08:27.214Z,100.00
2022-09-11T21:10:57.133Z,100.00
2022-09-11T21:13:27.988Z,100.00
2022-09-11T21:16:00.654Z,100.00
2022-09-11T21:18:34.487Z,100.00
2022-09-11T21:21:04.515Z,100.00
2022-09-11T21:23:34.438Z,100.00
2022-09-11T21:26:03.661Z,100.00
2022-09-11T21:28:33.277Z,100.00
2022-09-11T21:31:04.396Z,100.00
2022-09-11T21:33:35.071Z,100.00
2022-09-11T21:36:06.604Z,100.00
2022-09-11T21:38:35.580Z,100.00
2022-09-11T21:41:07.883Z,100.00
2022-09-11T21:43:37.377Z,100.00
2022-09-11T21:46:12.584Z,100.00
2022-09-11T21:48:42.505Z,100.00
2022-09-11T21:51:14.271Z,100.00
2022-09-11T21:53:46.771Z,100.00
2022-09-11T21:56:26.075Z,100.00
2022-09-11T21:58:55.756Z,100.00
2022-09-11T22:01:28.572Z,100.00
2022-09-11T22:03:58.723Z,100.00
2022-09-11T22:06:28.587Z,100.00
2022-09-11T22:09:01.514Z,100.00
2022-09-11T22:11:30.956Z,100.00
2022-09-11T22:14:01.659Z,100.00
2022-09-11T22:16:33.733Z,100.00
2022-09-11T22:19:03.795Z,100.00
2022-09-11T22:21:33.438Z,100.00
2022-09-11T22:24:02.418Z,100.00
2022-09-11T22:26:34.436Z,100.00
2022-09-11T22:29:04.994Z,100.00
2022-09-11T22:31:35.438Z,100.00
2022-09-11T22:34:06.536Z,100.00
2022-09-11T22:36:38.457Z,100.00
2022-09-11T22:39:07.024Z,100.00
2022-09-11T22:41:37.966Z,100.00
2022-09-11T22:44:07.792Z,100.00
2022-09-11T22:46:38.882Z,100.00
2022-09-11T22:49:10.032Z,100.00
2022-09-11T23:05:20.529Z,100.00
2022-09-11T23:07:50.321Z,100.00
2022-09-11T23:10:23.452Z,100.00
2022-09-11T23:12:52.227Z,100.00
2022-09-11T23:15:21.415Z,100.00
2022-09-11T23:17:50.008Z,100.00
2022-09-11T23:20:19.904Z,100.00
2022-09-11T23:22:48.183Z,100.00
2022-09-11T23:25:16.577Z,100.00
2022-09-11T23:27:46.448Z,100.00
2022-09-11T23:30:14.770Z,100.00
2022-09-11T23:32:43.070Z,100.00
2022-09-11T23:35:12.098Z,100.00
2022-09-11T23:37:45.275Z,100.00
2022-09-11T23:40:14.028Z,100.00
2022-09-11T23:42:42.398Z,100.00
2022-09-11T23:45:16.090Z,100.00
2022-09-11T23:47:44.336Z,100.00
2022-09-11T23:50:12.651Z,100.00
2022-09-11T23:52:42.265Z,100.00
2022-09-11T23:55:11.604Z,100.00
2022-09-11T23:57:39.921Z,100.00
